Norman Ranch, South Dakota
Current Conditions -  °F | °C
As of 8:53 AM on Friday 31 Oct 2014 (Local Time) from KPIR Reporting Station
Moderate Fog Moderate Fog  
Wind Chill: 10°   Ceiling: 100
Heat Index: 17°   Visibility: 0mi
Dew Point: 15°   Wind: 5mph
Humidity: 92%   Direction: 70°ENE
Pressure: 30.54"   Gusts: NA
Location:  44.268°N, 100.627°W
Report Text: KPIR 311353Z AUTO 07004KT M1/4SM FZFG VV001 M08/M09 A3054 RMK AO2 SLP366 T10831094
Loading
Personal Weather Stations






























Interactive Weather Map
Tropical Storm Tracking
New forecast layout! Learn more

10-Day Weather Forecast

Advertisements
Track Severe Weather on mobile